Impacts METAR Board
IDs:

KMIA - Miami Intl, FL, US

Updated at: 1800 UTC 22 Sep 2018
Potential Impact None Slight Moderate High
Time 22/06Z 22/07Z 22/08Z 22/09Z 22/10Z 22/11Z 22/12Z 22/13Z 22/14Z 22/15Z 22/16Z 22/17Z 22/18Z
Temp78 78 78 77 79 78 80 83 85 87 86 89 88
Dewpt75 76 76 76 77 76 76 77 76 75 74 76 74
Altim30.01 29.99 29.98 29.98 29.98 29.99 29.99 29.99 30.00 30.01 30.01 30.00 29.98
VIS10 10 10 10 10 10 10 10 10 10 10 10 10
CIG-- 250 250 -- -- -- 250 250 -- 250 250 35 250
CoverSCTBKNBKNSCTSCTSCTBKNBKNSCTBKNBKNBKNBKN
FltCatVFRVFRVFRVFRVFRVFRVFRVFRVFRVFRVFRVFRVFR
WX--------------------------
WDir350040000202060905070110
WSpd3 0 3 0 0 0 3 5 6 7 5 9 9
WGst-- -- -- -- -- -- -- -- -- -- -- -- --
Raw hourly METARs
KMIA 220553Z 35003KT 10SM FEW026 FEW045 SCT095 SCT250 26/24 A3001 RMK AO2 RAB0459E33 TSE15 SLP161 CB DSNT N-NE P0004 60004 T02560239 10289 20250 58006 $
KMIA 220653Z 00000KT 10SM FEW026 SCT095 BKN250 26/24 A2999 RMK AO2 SLP154 T02560244 $
KMIA 220753Z 04003KT 10SM FEW026CB SCT095 BKN250 26/24 A2998 RMK AO2 SLP151 CB E MOV NW T02560244 $
KMIA 220853Z 00000KT 10SM FEW026 SCT250 25/24 A2998 RMK AO2 SLP151 T02500244 56010 $
KMIA 220953Z 00000KT 10SM FEW026 SCT250 26/25 A2998 RMK AO2 SLP152 T02610250 $
KMIA 221053Z 00000KT 10SM FEW025 FEW180 SCT250 26/24 A2999 RMK AO2 SLP154 TCU DSNT E T02560244 $
KMIA 221153Z COR 02003KT 10SM FEW025 FEW150 BKN250 27/24 A2999 RMK AO2 SLP157 CB DSNT E 70004 T02670244 10267 20244 53006 $
KMIA 221253Z 02005KT 10SM FEW030 BKN250 28/25 A2999 RMK AO2 SLP157 T02830250 $
KMIA 221353Z 06006KT 10SM FEW026 SCT250 29/24 A3000 RMK AO2 SLP158 T02940244 $
KMIA 221453Z 09007KT 10SM SCT030 BKN250 31/24 A3001 RMK AO2 SLP162 T03060239 53005 $
KMIA 221553Z 05005KT 10SM SCT035 BKN250 30/23 A3001 RMK AO2 SLP162 MDT CU S T03000233 $
KMIA 221653Z 07009KT 10SM BKN035CB BKN180 BKN250 32/24 A3000 RMK AO2 LTG DSNT SW AND W SLP159 CB SW MOV STNRY CB DSNT E SE AND N T03170244 $
KMIA 221753Z 11009KT 10SM FEW035 SCT050 BKN250 31/23 A2998 RMK AO2 LTG DSNT SW-N SLP153 CB DSNT N E AND SW TCU DSNT SE T03110233 10317 20267 58009 $



Page loaded:  18:27 UTC  |   11:27 AM Pacific  |   12:27 PM Mountain  |   01:27 PM Central  |   02:27 PM Eastern

 

ADVISORIES

FORECASTS

FORECASTS

OBSERVATIONS

USER TOOLS

ABOUT US